createdAt,value
2023-04-10T00:02:25.111Z,6.93
2023-04-10T00:04:52.321Z,7.37
2023-04-10T00:07:19.258Z,7.03
2023-04-10T00:09:46.015Z,7.30
2023-04-10T00:12:12.882Z,7.60
2023-04-10T00:14:39.634Z,7.17
2023-04-10T00:17:06.613Z,8.37
2023-04-10T00:19:33.699Z,8.30
2023-04-10T00:22:00.575Z,7.90
2023-04-10T00:24:27.515Z,7.57
2023-04-10T00:26:54.280Z,7.40
2023-04-10T00:29:21.024Z,7.73
2023-04-10T00:31:47.893Z,6.53
2023-04-10T00:34:14.697Z,7.57
2023-04-10T00:36:41.736Z,7.63
2023-04-10T00:39:09.751Z,7.10
2023-04-10T00:41:36.513Z,6.63
2023-04-10T00:44:03.399Z,7.17
2023-04-10T00:46:31.669Z,5.97
2023-04-10T00:48:58.650Z,6.40
2023-04-10T00:51:26.543Z,7.70
2023-04-10T00:53:55.271Z,8.40
2023-04-10T00:56:24.320Z,8.90
2023-04-10T00:58:51.060Z,8.93
2023-04-10T01:01:17.941Z,7.90
2023-04-10T01:03:45.559Z,8.95
2023-04-10T01:06:40.841Z,8.60
2023-04-10T01:09:24.758Z,8.80
2023-04-10T01:11:54.453Z,9.30
2023-04-10T01:14:49.153Z,9.17
2023-04-10T01:17:39.576Z,8.75
2023-04-10T01:20:26.783Z,8.60
2023-04-10T01:23:26.155Z,9.60
2023-04-10T01:26:17.344Z,9.05
2023-04-10T01:29:08.454Z,9.17
2023-04-10T01:31:58.073Z,8.93
2023-04-10T01:34:32.585Z,10.93
2023-04-10T01:37:02.571Z,9.50
2023-04-10T01:39:31.477Z,9.65
2023-04-10T01:42:00.032Z,10.37
2023-04-10T01:44:30.650Z,8.93
2023-04-10T01:46:58.631Z,9.77
2023-04-10T01:49:28.166Z,9.00
2023-04-10T01:51:58.717Z,9.23
2023-04-10T01:54:31.550Z,9.70
2023-04-10T01:57:00.535Z,8.95
2023-04-10T01:59:27.599Z,9.30
2023-04-10T02:01:58.546Z,10.60
2023-04-10T02:04:28.791Z,10.13
2023-04-10T02:07:06.072Z,10.15
2023-04-10T02:09:54.628Z,10.43
2023-04-10T02:12:27.491Z,9.70
2023-04-10T02:14:56.937Z,10.63
2023-04-10T02:17:31.190Z,10.20
2023-04-10T02:19:59.494Z,9.60
2023-04-10T02:22:27.172Z,8.70
2023-04-10T02:24:54.673Z,9.97
2023-04-10T02:27:32.828Z,10.80
2023-04-10T02:30:00.114Z,8.90
2023-04-10T02:32:27.413Z,9.20
2023-04-10T02:34:54.539Z,10.60
2023-04-10T02:37:21.298Z,8.98
2023-04-10T02:39:48.082Z,9.10
2023-04-10T02:42:14.901Z,9.30
2023-04-10T02:44:41.743Z,9.77
2023-04-10T02:47:08.571Z,8.57
2023-04-10T02:49:35.557Z,8.75
2023-04-10T02:52:02.437Z,8.77
2023-04-10T02:54:29.206Z,9.80
2023-04-10T02:56:57.568Z,8.82
2023-04-10T02:59:24.394Z,10.00
2023-04-10T03:01:52.682Z,9.37
2023-04-10T03:04:19.767Z,8.25
2023-04-10T03:06:46.716Z,8.67
2023-04-10T03:09:13.505Z,9.85
2023-04-10T03:11:40.473Z,8.30
2023-04-10T03:14:09.894Z,9.05
2023-04-10T03:16:36.954Z,8.45
2023-04-10T03:19:04.557Z,8.75
2023-04-10T03:21:32.020Z,8.90
2023-04-10T03:23:58.823Z,9.48
2023-04-10T03:26:25.741Z,9.20
2023-04-10T03:28:52.577Z,9.07
2023-04-10T03:31:19.449Z,10.00
2023-04-10T03:33:46.645Z,9.00
2023-04-10T03:36:13.588Z,9.13
2023-04-10T03:38:40.599Z,8.75
2023-04-10T03:41:07.424Z,9.60
2023-04-10T03:43:34.754Z,8.17
2023-04-10T03:46:01.916Z,8.70
2023-04-10T03:48:30.599Z,9.18
2023-04-10T03:50:57.615Z,8.97
2023-04-10T03:53:24.920Z,8.90
2023-04-10T03:55:54.724Z,9.52
2023-04-10T03:58:21.627Z,9.68
2023-04-10T04:00:48.435Z,8.95
2023-04-10T04:03:16.373Z,9.50
2023-04-10T04:05:43.386Z,9.85
2023-04-10T04:08:10.371Z,9.50
2023-04-10T04:10:37.171Z,8.80
2023-04-10T04:13:03.914Z,8.95
2023-04-10T04:15:30.811Z,9.73
2023-04-10T04:17:58.091Z,9.50
2023-04-10T04:20:24.879Z,8.82
2023-04-10T04:22:51.620Z,9.33
2023-04-10T04:25:19.801Z,8.80
2023-04-10T04:27:46.590Z,8.80
2023-04-10T04:30:13.389Z,8.65
2023-04-10T04:32:40.526Z,8.65
2023-04-10T04:35:07.988Z,9.48
2023-04-10T04:37:34.888Z,8.48
2023-04-10T04:40:02.232Z,9.38
2023-04-10T04:42:29.087Z,8.87
2023-04-10T04:44:55.830Z,8.50
2023-04-10T04:47:24.393Z,7.70
2023-04-10T04:49:51.360Z,7.80
2023-04-10T04:52:18.102Z,8.40
2023-04-10T04:54:47.308Z,8.57
2023-04-10T04:57:14.054Z,8.83
2023-04-10T04:59:40.894Z,8.68
2023-04-10T05:02:07.758Z,9.52
2023-04-10T05:04:35.039Z,7.93
2023-04-10T05:07:01.814Z,8.57
2023-04-10T05:09:28.554Z,8.65
2023-04-10T05:11:55.772Z,8.05
2023-04-10T05:14:22.641Z,8.88
2023-04-10T05:16:49.432Z,7.80
2023-04-10T05:19:16.347Z,8.00
2023-04-10T05:21:43.487Z,7.20
2023-04-10T05:24:10.477Z,7.47
2023-04-10T05:26:37.517Z,8.68
2023-04-10T05:29:04.648Z,7.47
2023-04-10T05:31:31.481Z,6.80
2023-04-10T05:33:58.377Z,7.70
2023-04-10T05:36:25.657Z,7.10
2023-04-10T05:38:52.925Z,8.63
2023-04-10T05:41:19.923Z,8.00
2023-04-10T05:43:46.681Z,7.45
2023-04-10T05:46:13.491Z,7.90
2023-04-10T05:48:40.342Z,7.23
2023-04-10T05:51:08.130Z,8.50
2023-04-10T05:53:35.228Z,7.60
2023-04-10T05:56:04.779Z,8.10
2023-04-10T05:58:31.563Z,8.57
2023-04-10T06:00:58.640Z,8.70
2023-04-10T06:03:27.694Z,9.98
2023-04-10T06:05:54.653Z,9.43
2023-04-10T06:08:22.844Z,9.00
2023-04-10T06:10:49.688Z,8.98
2023-04-10T06:13:16.737Z,8.10
2023-04-10T06:15:43.609Z,8.25
2023-04-10T06:18:10.501Z,7.85
2023-04-10T06:20:37.460Z,8.00
2023-04-10T06:23:04.292Z,8.23
2023-04-10T06:25:31.091Z,8.13
2023-04-10T06:27:58.100Z,7.87
2023-04-10T06:30:24.881Z,8.10
2023-04-10T06:32:51.645Z,8.00
2023-04-10T06:35:18.491Z,8.02
2023-04-10T06:37:45.350Z,7.47
2023-04-10T06:40:16.059Z,6.90
2023-04-10T06:42:43.079Z,7.97
2023-04-10T06:45:10.386Z,7.55
2023-04-10T06:47:37.254Z,6.33
2023-04-10T06:50:04.306Z,7.20
2023-04-10T06:52:31.710Z,7.43
2023-04-10T06:54:58.513Z,7.23
2023-04-10T06:57:25.353Z,6.40
2023-04-10T06:59:52.250Z,7.80
2023-04-10T07:02:19.192Z,6.20
2023-04-10T07:04:46.684Z,6.50
2023-04-10T07:07:13.867Z,5.97
2023-04-10T07:09:41.237Z,6.90
2023-04-10T07:12:08.041Z,6.37
2023-04-10T07:14:35.815Z,5.93
2023-04-10T07:17:03.041Z,7.50
2023-04-10T07:19:29.945Z,6.00
2023-04-10T07:21:56.953Z,6.40
2023-04-10T07:24:24.365Z,6.00
2023-04-10T07:26:51.345Z,6.07
2023-04-10T07:29:18.570Z,6.77
2023-04-10T07:31:45.591Z,5.63
2023-04-10T07:34:12.902Z,5.83
2023-04-10T07:36:44.410Z,6.50
2023-04-10T07:39:12.341Z,7.27
2023-04-10T07:41:39.271Z,5.57
2023-04-10T07:44:06.362Z,6.70
2023-04-10T07:46:33.612Z,6.90
2023-04-10T07:49:00.455Z,6.07
2023-04-10T07:51:27.986Z,6.60
2023-04-10T07:53:55.129Z,7.40
2023-04-10T07:56:23.378Z,6.97
2023-04-10T07:58:52.481Z,7.50
2023-04-10T08:01:19.445Z,7.30
2023-04-10T08:03:47.876Z,7.07
2023-04-10T08:06:17.880Z,6.47
2023-04-10T08:08:45.191Z,4.60
2023-04-10T08:11:31.495Z,4.87
2023-04-10T08:14:04.014Z,4.80
2023-04-10T08:16:33.307Z,5.10
2023-04-10T08:19:01.521Z,4.77
2023-04-10T08:21:29.465Z,4.70
2023-04-10T08:23:58.760Z,4.30
2023-04-10T08:26:26.393Z,4.63
2023-04-10T08:28:56.175Z,4.77
2023-04-10T08:31:24.396Z,5.60
2023-04-10T08:33:52.182Z,4.83
2023-04-10T08:36:20.378Z,4.60
2023-04-10T08:38:48.130Z,4.30
2023-04-10T08:41:19.736Z,3.70
2023-04-10T08:43:46.817Z,3.83
2023-04-10T08:46:14.729Z,3.83
2023-04-10T08:48:55.147Z,3.90
2023-04-10T08:51:26.901Z,4.50
2023-04-10T08:54:02.533Z,3.90
2023-04-10T08:56:32.768Z,3.97
2023-04-10T08:59:01.472Z,4.50
2023-04-10T09:01:28.492Z,4.83
2023-04-10T09:03:55.810Z,4.07
2023-04-10T09:06:27.447Z,3.60
2023-04-10T09:08:54.248Z,4.37
2023-04-10T09:11:21.600Z,4.40
2023-04-10T09:13:48.388Z,4.80
2023-04-10T09:16:16.261Z,3.43
2023-04-10T09:18:51.586Z,3.00
2023-04-10T09:21:22.178Z,3.33
2023-04-10T09:23:49.687Z,4.17
2023-04-10T09:26:27.305Z,2.80
2023-04-10T09:29:05.681Z,3.00
2023-04-10T09:31:35.175Z,3.03
2023-04-10T09:34:17.872Z,3.50
2023-04-10T09:36:56.783Z,3.70
2023-04-10T09:39:34.814Z,3.17
2023-04-10T09:42:01.906Z,3.13
2023-04-10T09:44:31.764Z,3.83
2023-04-10T09:47:24.929Z,2.40
2023-04-10T09:49:52.868Z,3.57
2023-04-10T09:52:26.438Z,3.40
2023-04-10T09:54:54.427Z,2.70
2023-04-10T09:57:23.467Z,3.40
2023-04-10T09:59:52.820Z,3.30
2023-04-10T10:02:21.134Z,3.03
2023-04-10T10:04:49.900Z,3.10
2023-04-10T10:07:18.486Z,3.23
2023-04-10T10:09:47.250Z,3.40
2023-04-10T10:12:19.336Z,3.47
2023-04-10T10:15:02.148Z,3.47
2023-04-10T10:17:58.569Z,3.70
2023-04-10T10:20:26.580Z,3.67
2023-04-10T10:22:54.606Z,3.17
2023-04-10T10:25:21.664Z,2.80
2023-04-10T10:27:52.472Z,3.27
2023-04-10T10:30:29.638Z,3.00
2023-04-10T10:32:59.667Z,2.83
2023-04-10T10:35:29.693Z,3.63
2023-04-10T10:37:59.916Z,2.73
2023-04-10T10:41:02.230Z,2.77
2023-04-10T10:43:47.783Z,3.43
2023-04-10T10:46:32.392Z,2.70
2023-04-10T10:49:00.358Z,2.90
2023-04-10T10:51:56.456Z,2.47
2023-04-10T10:54:34.505Z,3.00
2023-04-10T10:57:02.949Z,3.67
2023-04-10T10:59:48.126Z,2.90
2023-04-10T11:02:19.683Z,3.53
2023-04-10T11:04:48.283Z,2.37
2023-04-10T11:07:16.621Z,3.23
2023-04-10T11:09:51.119Z,3.20
2023-04-10T11:12:21.838Z,2.77
2023-04-10T11:15:03.281Z,2.43
2023-04-10T11:17:52.509Z,2.80
2023-04-10T11:20:22.013Z,2.43
2023-04-10T11:23:12.372Z,2.40
2023-04-10T11:25:52.288Z,2.70
2023-04-10T11:28:39.164Z,2.43
2023-04-10T11:31:22.819Z,2.03
2023-04-10T11:34:00.198Z,2.70
2023-04-10T11:36:28.074Z,2.50
2023-04-10T11:39:02.642Z,2.60
2023-04-10T11:41:34.759Z,2.33
2023-04-10T11:44:03.582Z,2.63
2023-04-10T11:46:30.732Z,2.50
2023-04-10T11:49:00.950Z,2.30
2023-04-10T11:51:28.507Z,2.33
2023-04-10T11:54:11.957Z,2.37
2023-04-10T11:56:41.058Z,2.83
2023-04-10T11:59:11.078Z,2.73
2023-04-10T12:01:41.112Z,2.77
2023-04-10T12:04:17.471Z,2.87
2023-04-10T12:06:57.004Z,2.87
2023-04-10T12:09:24.267Z,1.93
2023-04-10T12:11:59.768Z,2.60
2023-04-10T12:14:38.199Z,2.13
2023-04-10T12:17:08.098Z,2.67
2023-04-10T12:19:35.568Z,2.80
2023-04-10T12:22:03.130Z,2.40
2023-04-10T12:24:47.389Z,2.20
2023-04-10T12:27:21.140Z,2.13
2023-04-10T12:29:49.623Z,2.33
2023-04-10T12:32:17.134Z,3.20
2023-04-10T12:34:57.269Z,1.90
2023-04-10T12:37:25.419Z,2.30
2023-04-10T12:39:52.609Z,1.83
2023-04-10T12:42:22.406Z,2.20
2023-04-10T12:44:55.718Z,3.10
2023-04-10T12:47:23.732Z,2.60
2023-04-10T12:50:11.121Z,2.53
2023-04-10T12:52:40.534Z,2.43
2023-04-10T12:55:18.547Z,2.20
2023-04-10T12:57:47.988Z,1.77
2023-04-10T13:00:17.504Z,2.13
2023-04-10T13:02:45.281Z,2.03
2023-04-10T13:05:12.570Z,2.20
2023-04-10T13:07:41.075Z,2.30
2023-04-10T13:10:09.086Z,1.50
2023-04-10T13:12:38.000Z,1.80
2023-04-10T13:15:05.288Z,1.77
2023-04-10T13:17:32.080Z,2.07
2023-04-10T13:19:58.874Z,2.27
2023-04-10T13:22:25.649Z,2.20
2023-04-10T13:24:52.457Z,2.50
2023-04-10T13:27:19.312Z,3.00
2023-04-10T13:29:46.254Z,2.37
2023-04-10T13:32:13.066Z,2.07
2023-04-10T13:34:39.802Z,2.73
2023-04-10T13:37:06.757Z,2.73
2023-04-10T13:39:33.600Z,2.60
2023-04-10T13:42:02.211Z,2.37
2023-04-10T13:44:29.104Z,1.80
2023-04-10T13:46:56.047Z,2.03
2023-04-10T13:49:22.873Z,2.40
2023-04-10T13:51:49.846Z,2.90
2023-04-10T13:54:20.141Z,2.10
2023-04-10T13:56:47.084Z,2.07
2023-04-10T13:59:14.192Z,2.20
2023-04-10T14:01:41.074Z,2.20
2023-04-10T14:04:08.558Z,2.07
2023-04-10T14:06:35.423Z,1.77
2023-04-10T14:09:02.317Z,2.47
2023-04-10T14:11:29.127Z,2.30
2023-04-10T14:13:55.979Z,1.67
2023-04-10T14:16:22.749Z,2.10
2023-04-10T14:18:49.619Z,1.97
2023-04-10T14:21:17.337Z,2.17
2023-04-10T14:23:44.987Z,2.30
2023-04-10T14:26:11.692Z,2.43
2023-04-10T14:28:38.479Z,2.30
2023-04-10T14:31:06.427Z,2.50
2023-04-10T14:33:33.260Z,2.30
2023-04-10T14:36:00.167Z,2.23
2023-04-10T14:38:27.009Z,2.20
2023-04-10T14:40:53.980Z,2.20
2023-04-10T14:43:20.905Z,2.97
2023-04-10T14:45:47.854Z,2.30
2023-04-10T14:48:14.949Z,2.27
2023-04-10T14:50:41.834Z,2.00
2023-04-10T14:53:09.946Z,2.50
2023-04-10T14:55:37.392Z,1.73
2023-04-10T14:58:06.614Z,2.57
2023-04-10T15:00:33.586Z,1.90
2023-04-10T15:03:00.882Z,2.30
2023-04-10T15:05:28.311Z,2.13
2023-04-10T15:07:55.214Z,2.20
2023-04-10T15:10:22.194Z,2.03
2023-04-10T15:12:49.097Z,2.30
2023-04-10T15:15:15.911Z,2.30
2023-04-10T15:17:42.683Z,2.37
2023-04-10T15:20:10.176Z,2.50
2023-04-10T15:22:36.980Z,2.37
2023-04-10T15:25:04.312Z,2.40
2023-04-10T15:27:31.190Z,2.33
2023-04-10T15:29:58.260Z,2.77
2023-04-10T15:32:25.129Z,2.30
2023-04-10T15:34:51.946Z,2.17
2023-04-10T15:37:18.685Z,2.47
2023-04-10T15:39:45.438Z,2.47
2023-04-10T15:42:12.176Z,2.33
2023-04-10T15:44:38.939Z,2.87
2023-04-10T15:47:05.767Z,2.47
2023-04-10T15:49:37.820Z,2.27
2023-04-10T15:52:06.643Z,2.83
2023-04-10T15:54:34.513Z,2.90
2023-04-10T15:57:04.284Z,2.93
2023-04-10T15:59:32.262Z,3.27
2023-04-10T16:01:59.081Z,3.10
2023-04-10T16:04:26.086Z,3.20
2023-04-10T16:06:52.986Z,2.60
2023-04-10T16:09:25.653Z,2.20
2023-04-10T16:11:54.217Z,2.90
2023-04-10T16:14:21.168Z,3.17
2023-04-10T16:16:47.911Z,3.13
2023-04-10T16:19:14.693Z,2.50
2023-04-10T16:21:42.728Z,2.30
2023-04-10T16:24:09.691Z,2.67
2023-04-10T16:26:36.454Z,2.90
2023-04-10T16:29:03.387Z,2.70
2023-04-10T16:31:30.392Z,2.43
2023-04-10T16:33:57.295Z,2.50
2023-04-10T16:36:24.195Z,2.80
2023-04-10T16:38:51.118Z,2.30
2023-04-10T16:41:18.523Z,2.27
2023-04-10T16:44:00.125Z,2.57
2023-04-10T16:46:28.392Z,2.63
2023-04-10T16:52:46.440Z,3.13
2023-04-10T16:55:23.945Z,2.20
2023-04-10T16:58:11.560Z,2.90
2023-04-10T17:00:58.528Z,2.33
2023-04-10T17:03:37.869Z,2.67
2023-04-10T17:06:05.168Z,2.97
2023-04-10T17:08:34.017Z,3.30
2023-04-10T17:11:04.685Z,2.43
2023-04-10T17:13:37.673Z,2.70
2023-04-10T17:16:05.765Z,2.73
2023-04-10T17:18:33.361Z,3.03
2023-04-10T17:21:02.545Z,2.97
2023-04-10T17:23:29.977Z,3.20
2023-04-10T17:25:57.055Z,2.80
2023-04-10T17:28:27.637Z,2.73
2023-04-10T17:30:57.250Z,3.37
2023-04-10T17:33:24.224Z,3.23
2023-04-10T17:35:54.494Z,2.83
2023-04-10T17:38:24.848Z,2.80
2023-04-10T17:40:51.766Z,2.90
2023-04-10T17:43:18.685Z,2.80
2023-04-10T17:45:48.632Z,2.73
2023-04-10T17:48:18.278Z,3.43
2023-04-10T17:50:49.489Z,2.57
2023-04-10T17:53:16.651Z,2.43
2023-04-10T17:55:48.284Z,3.30
2023-04-10T17:58:15.539Z,2.90
2023-04-10T18:00:58.707Z,3.10
2023-04-10T18:03:31.254Z,2.93
2023-04-10T18:06:07.305Z,3.63
2023-04-10T18:08:38.870Z,3.20
2023-04-10T18:11:06.151Z,3.17
2023-04-10T18:13:48.350Z,2.63
2023-04-10T18:16:18.107Z,3.37
2023-04-10T18:18:45.267Z,3.37
2023-04-10T18:21:15.681Z,3.20
2023-04-10T18:23:44.719Z,3.73
2023-04-10T18:26:25.353Z,3.37
2023-04-10T18:28:54.417Z,2.90
2023-04-10T18:31:29.442Z,3.43
2023-04-10T18:34:07.046Z,3.93
2023-04-10T18:36:42.512Z,3.27
2023-04-10T18:39:12.022Z,3.90
2023-04-10T18:42:32.946Z,3.33
2023-04-10T18:45:01.838Z,3.60
2023-04-10T18:47:28.654Z,2.73
2023-04-10T18:49:55.603Z,2.90
2023-04-10T18:52:22.375Z,3.40
2023-04-10T18:54:49.132Z,3.03
2023-04-10T18:57:15.983Z,3.10
2023-04-10T18:59:42.729Z,3.40
2023-04-10T19:02:09.716Z,3.70
2023-04-10T19:04:36.780Z,3.50
2023-04-10T19:07:03.871Z,3.53
2023-04-10T19:09:30.661Z,3.30
2023-04-10T19:11:58.020Z,3.00
2023-04-10T19:14:24.930Z,2.80
2023-04-10T19:16:51.770Z,3.13
2023-04-10T19:19:18.602Z,3.13
2023-04-10T19:21:45.527Z,3.57
2023-04-10T19:24:12.673Z,3.70
2023-04-10T19:26:39.583Z,3.37
2023-04-10T19:29:08.850Z,3.53
2023-04-10T19:31:35.775Z,2.70
2023-04-10T19:34:04.642Z,2.97
2023-04-10T19:36:31.784Z,3.60
2023-04-10T19:38:58.616Z,3.20
2023-04-10T19:41:26.131Z,3.17
2023-04-10T19:43:54.433Z,3.43
2023-04-10T19:46:22.371Z,4.00
2023-04-10T19:48:49.611Z,3.73
2023-04-10T19:51:16.512Z,3.97
2023-04-10T19:53:43.632Z,3.70
2023-04-10T19:56:10.622Z,3.63
2023-04-10T19:58:40.885Z,3.20
2023-04-10T20:01:09.333Z,4.00
2023-04-10T20:03:37.740Z,5.20
2023-04-10T20:06:10.325Z,4.53
2023-04-10T20:08:37.339Z,4.20
2023-04-10T20:11:07.189Z,3.57
2023-04-10T20:13:34.953Z,4.00
2023-04-10T20:16:02.574Z,3.77
2023-04-10T20:18:31.522Z,4.70
2023-04-10T20:20:58.313Z,4.60
2023-04-10T20:23:25.372Z,3.67
2023-04-10T20:25:52.232Z,4.00
2023-04-10T20:28:18.994Z,3.63
2023-04-10T20:30:45.904Z,4.17
2023-04-10T20:33:12.753Z,4.07
2023-04-10T20:35:39.683Z,3.73
2023-04-10T20:38:06.643Z,4.03
2023-04-10T20:40:33.661Z,3.70
2023-04-10T20:43:00.480Z,3.97
2023-04-10T20:45:27.273Z,4.60
2023-04-10T20:47:54.178Z,3.50
2023-04-10T20:50:21.107Z,4.53
2023-04-10T20:52:47.904Z,4.53
2023-04-10T20:55:15.050Z,4.53
2023-04-10T20:57:41.900Z,5.27
2023-04-10T21:00:09.797Z,4.83
2023-04-10T21:02:36.948Z,4.93
2023-04-10T21:05:05.224Z,4.97
2023-04-10T21:07:32.095Z,4.90
2023-04-10T21:09:59.257Z,4.97
2023-04-10T21:12:26.042Z,5.30
2023-04-10T21:14:52.884Z,4.83
2023-04-10T21:17:20.225Z,5.85
2023-04-10T21:19:47.104Z,5.10
2023-04-10T21:22:13.927Z,5.27
2023-04-10T21:24:40.668Z,4.73
2023-04-10T21:27:08.114Z,5.50
2023-04-10T21:29:34.888Z,5.67
2023-04-10T21:32:01.709Z,5.60
2023-04-10T21:34:28.588Z,5.83
2023-04-10T21:36:55.353Z,5.88
2023-04-10T21:39:22.160Z,5.10
2023-04-10T21:41:48.971Z,5.70
2023-04-10T21:44:15.945Z,6.20
2023-04-10T21:46:42.724Z,6.43
2023-04-10T21:49:10.434Z,5.40
2023-04-10T21:51:37.300Z,5.57
2023-04-10T21:54:04.157Z,6.05
2023-04-10T21:56:30.955Z,6.05
2023-04-10T21:58:57.788Z,6.30
2023-04-10T22:01:26.712Z,5.63
2023-04-10T22:03:56.108Z,6.50
2023-04-10T22:06:23.297Z,7.15
2023-04-10T22:08:50.102Z,6.60
2023-04-10T22:11:17.044Z,6.77
2023-04-10T22:13:44.072Z,6.97
2023-04-10T22:16:10.862Z,7.97
2023-04-10T22:18:37.663Z,6.80
2023-04-10T22:21:04.615Z,7.23
2023-04-10T22:23:31.775Z,6.50
2023-04-10T22:26:00.849Z,7.38
2023-04-10T22:28:28.696Z,6.70
2023-04-10T22:30:55.615Z,6.40
2023-04-10T22:33:22.457Z,6.63
2023-04-10T22:35:49.360Z,7.47
2023-04-10T22:38:16.261Z,7.30
2023-04-10T22:40:43.198Z,7.18
2023-04-10T22:43:11.040Z,7.90
2023-04-10T22:45:39.622Z,6.65
2023-04-10T22:48:06.449Z,7.00
2023-04-10T22:50:33.404Z,6.40
2023-04-10T22:53:00.187Z,6.38
2023-04-10T22:55:27.032Z,6.78
2023-04-10T22:57:53.826Z,6.70
2023-04-10T23:00:20.652Z,5.85
2023-04-10T23:02:47.499Z,6.70
2023-04-10T23:05:14.435Z,6.95
2023-04-10T23:07:41.264Z,6.83
2023-04-10T23:10:08.744Z,6.90
2023-04-10T23:12:36.009Z,5.60
2023-04-10T23:15:02.942Z,6.80
2023-04-10T23:17:29.833Z,5.82
2023-04-10T23:19:56.645Z,6.82
2023-04-10T23:22:23.488Z,5.85
2023-04-10T23:24:56.984Z,6.33
2023-04-10T23:27:24.182Z,5.93
2023-04-10T23:29:50.941Z,6.20
2023-04-10T23:32:17.741Z,6.68
2023-04-10T23:34:44.624Z,6.20
2023-04-10T23:37:11.494Z,7.10
2023-04-10T23:39:38.306Z,5.85
2023-04-10T23:42:05.151Z,6.25
2023-04-10T23:44:32.033Z,6.80
2023-04-10T23:46:59.046Z,6.00
2023-04-10T23:49:25.897Z,6.53
2023-04-10T23:51:52.733Z,5.95
2023-04-10T23:54:19.483Z,5.68
2023-04-10T23:56:46.225Z,6.07
2023-04-10T23:59:16.888Z,5.82
